Time;durP1;ratioP1;P1;durP2;ratioP2;P2;SDS_P1;SDS_P2;PMS_P1;PMS_P2;Temp;Humidity;BMP_temperature;BMP_pressure;BME280_temperature;BME280_humidity;BME280_pressure;Samples;Min_cycle;Max_cycle;Signal;HPM_P1;HPM_P2
2023/06/02 00:01:43;;;;;;;12.57;6.90;;;16.20;63.50;;;;;;5072943;28;20441;-72
2023/06/02 00:04:29;;;;;;;8.87;6.17;;;16.20;64.10;;;;;;5069910;28;20413;-71
2023/06/02 00:07:14;;;;;;;9.83;5.83;;;16.10;64.90;;;;;;5068650;28;21098;-72
2023/06/02 00:10:00;;;;;;;7.10;6.00;;;16.30;65.00;;;;;;5065312;28;20545;-72
2023/06/02 00:12:45;;;;;;;11.33;7.20;;;16.30;65.70;;;;;;5066404;28;20489;-73
2023/06/02 00:15:31;;;;;;;8.40;6.40;;;16.30;66.30;;;;;;5064112;28;20453;-72
2023/06/02 00:18:20;;;;;;;11.00;6.83;;;16.40;66.90;;;;;;5065609;28;20470;-71
2023/06/02 00:21:06;;;;;;;8.63;6.10;;;16.40;67.10;;;;;;5071933;28;20468;-71
2023/06/02 00:23:52;;;;;;;9.73;6.23;;;16.30;67.30;;;;;;5064053;28;20454;-71
2023/06/02 00:26:38;;;;;;;9.17;6.73;;;16.30;67.80;;;;;;5070410;28;20438;-71
2023/06/02 00:29:23;;;;;;;8.20;6.60;;;16.20;68.10;;;;;;5067703;28;20482;-72
2023/06/02 00:32:09;;;;;;;9.30;6.60;;;16.20;68.90;;;;;;5075342;28;20438;-71
2023/06/02 00:34:56;;;;;;;17.30;7.00;;;16.20;69.60;;;;;;5066051;28;20417;-70
2023/06/02 00:37:41;;;;;;;10.10;7.43;;;16.10;70.60;;;;;;5071465;28;20441;-72
2023/06/02 00:40:27;;;;;;;10.70;6.80;;;16.10;71.20;;;;;;5071497;28;20445;-69
2023/06/02 00:43:12;;;;;;;10.23;7.67;;;16.20;71.50;;;;;;5065419;28;20425;-71
2023/06/02 00:45:58;;;;;;;10.20;7.23;;;16.20;71.50;;;;;;5078371;28;20584;-72
2023/06/02 00:48:43;;;;;;;11.83;7.30;;;16.10;71.40;;;;;;5070453;28;20445;-71
2023/06/02 00:51:31;;;;;;;8.70;6.97;;;16.10;72.40;;;;;;5074367;28;20446;-72
2023/06/02 00:54:16;;;;;;;11.30;7.30;;;16.00;72.70;;;;;;5068312;28;20560;-71
2023/06/02 00:57:01;;;;;;;9.23;7.40;;;16.10;72.90;;;;;;5069097;28;20474;-71
2023/06/02 00:59:47;;;;;;;9.17;7.40;;;16.10;73.30;;;;;;5063672;28;20482;-72
2023/06/02 01:02:32;;;;;;;9.80;6.70;;;16.00;73.70;;;;;;5072134;28;20449;-72
2023/06/02 01:05:19;;;;;;;10.63;6.30;;;15.90;74.50;;;;;;5072472;28;20422;-70
2023/06/02 01:08:07;;;;;;;10.53;7.40;;;15.90;75.10;;;;;;5073541;28;20410;-71
2023/06/02 01:10:53;;;;;;;12.50;7.50;;;15.80;75.80;;;;;;5076239;28;20453;-72
2023/06/02 01:13:39;;;;;;;8.33;6.30;;;15.80;75.90;;;;;;5069739;28;20446;-71
2023/06/02 01:16:26;;;;;;;16.43;7.17;;;15.70;76.30;;;;;;5078030;28;20454;-72
2023/06/02 01:19:13;;;;;;;11.13;8.73;;;15.70;76.50;;;;;;5076191;28;20473;-71
2023/06/02 01:22:03;;;;;;;11.87;7.63;;;15.80;76.40;;;;;;5067672;28;20442;-71
2023/06/02 01:24:51;;;;;;;9.90;7.73;;;15.70;76.50;;;;;;5073211;28;20486;-71
2023/06/02 01:27:36;;;;;;;15.63;7.70;;;15.70;76.80;;;;;;5071439;28;20439;-71
2023/06/02 01:30:22;;;;;;;11.03;7.00;;;15.70;77.70;;;;;;5066225;28;20573;-72
2023/06/02 01:33:13;;;;;;;15.73;7.50;;;15.60;77.70;;;;;;5072869;28;20427;-73
2023/06/02 01:35:59;;;;;;;9.77;7.67;;;15.50;78.40;;;;;;5070714;28;20442;-70
2023/06/02 01:38:47;;;;;;;9.00;7.20;;;15.40;78.80;;;;;;5075179;28;20453;-72
2023/06/02 01:41:38;;;;;;;12.23;7.60;;;15.50;78.10;;;;;;5069415;28;20430;-72
2023/06/02 01:44:25;;;;;;;9.80;7.70;;;15.50;77.70;;;;;;5070727;28;20450;-71
2023/06/02 01:47:11;;;;;;;9.60;7.70;;;15.50;78.50;;;;;;5072355;28;20449;-72
2023/06/02 01:49:56;;;;;;;9.63;7.23;;;15.50;78.80;;;;;;5075554;28;20453;-71
2023/06/02 01:52:42;;;;;;;9.53;6.67;;;15.30;78.70;;;;;;5069104;28;20587;-70
2023/06/02 01:55:28;;;;;;;10.27;7.77;;;15.40;79.00;;;;;;5066100;28;20420;-71
2023/06/02 01:58:14;;;;;;;12.27;8.47;;;15.30;78.00;;;;;;5073577;28;20472;-71
2023/06/02 02:01:00;;;;;;;9.17;7.83;;;15.40;79.20;;;;;;5069686;28;20848;-72
2023/06/02 02:03:45;;;;;;;7.30;6.47;;;15.20;79.60;;;;;;5065951;28;20450;-71
2023/06/02 02:06:31;;;;;;;7.60;6.77;;;15.20;80.20;;;;;;5071881;28;21092;-72
2023/06/02 02:09:16;;;;;;;11.03;7.73;;;15.20;80.00;;;;;;5076796;28;20449;-71
2023/06/02 02:12:02;;;;;;;9.37;7.27;;;15.20;80.00;;;;;;5064838;28;20623;-71
2023/06/02 02:14:50;;;;;;;10.30;7.50;;;15.00;80.10;;;;;;5067399;28;20417;-71
2023/06/02 02:17:36;;;;;;;8.70;7.27;;;14.80;81.20;;;;;;5082972;28;20478;-72
2023/06/02 02:20:22;;;;;;;12.60;8.47;;;14.80;82.30;;;;;;5071662;28;20424;-71
2023/06/02 02:23:07;;;;;;;11.37;7.90;;;14.70;82.90;;;;;;5068804;28;20526;-72
2023/06/02 02:25:53;;;;;;;12.13;7.57;;;14.60;83.70;;;;;;5082016;28;20454;-71
2023/06/02 02:28:39;;;;;;;11.07;7.37;;;14.40;85.40;;;;;;5079738;28;20524;-71
2023/06/02 02:31:27;;;;;;;11.77;8.17;;;14.40;86.20;;;;;;5070805;28;20814;-70
2023/06/02 02:34:13;;;;;;;12.73;8.10;;;14.40;86.70;;;;;;5076204;28;20515;-71
2023/06/02 02:37:01;;;;;;;9.30;7.83;;;14.40;88.30;;;;;;5074726;28;20481;-71
2023/06/02 02:39:46;;;;;;;10.33;8.17;;;14.40;88.60;;;;;;5071814;28;20527;-71
2023/06/02 02:42:33;;;;;;;10.63;7.77;;;14.40;88.30;;;;;;5063405;28;20507;-71
2023/06/02 02:45:21;;;;;;;12.97;7.70;;;14.20;88.20;;;;;;5078792;28;21286;-72
2023/06/02 02:48:07;;;;;;;10.10;7.70;;;14.20;90.20;;;;;;5070817;28;20497;-71
2023/06/02 02:50:53;;;;;;;12.07;8.17;;;14.20;90.40;;;;;;5069105;28;20479;-71
2023/06/02 02:53:39;;;;;;;8.97;7.67;;;14.20;90.60;;;;;;5076020;28;20404;-72
2023/06/02 02:56:27;;;;;;;9.60;7.63;;;14.30;90.60;;;;;;5073168;28;20435;-71
2023/06/02 02:59:13;;;;;;;8.80;7.13;;;14.20;90.40;;;;;;5076962;28;20998;-72
2023/06/02 03:01:59;;;;;;;8.50;6.87;;;14.20;90.50;;;;;;5066717;28;20496;-72
2023/06/02 03:04:46;;;;;;;10.00;8.00;;;14.00;90.00;;;;;;5077109;28;20511;-71
2023/06/02 03:07:31;;;;;;;10.47;8.30;;;13.90;90.70;;;;;;5074768;28;20519;-72
2023/06/02 03:10:16;;;;;;;16.90;7.07;;;13.60;91.00;;;;;;5070596;28;20519;-71
2023/06/02 03:13:02;;;;;;;11.70;8.40;;;13.40;93.40;;;;;;5064852;28;21576;-70
2023/06/02 03:15:48;;;;;;;10.90;7.10;;;13.50;93.50;;;;;;5073516;28;20425;-71
2023/06/02 03:18:33;;;;;;;12.70;7.77;;;13.40;93.60;;;;;;5073607;28;20482;-71
2023/06/02 03:21:21;;;;;;;10.20;7.90;;;13.30;93.70;;;;;;5070367;28;20443;-71
2023/06/02 03:24:07;;;;;;;8.90;7.50;;;13.30;93.80;;;;;;5087084;28;20448;-71
2023/06/02 03:26:55;;;;;;;9.87;7.53;;;13.20;94.20;;;;;;5076620;28;20420;-72
2023/06/02 03:29:40;;;;;;;8.60;7.70;;;13.10;95.40;;;;;;5075309;28;20454;-71
2023/06/02 03:32:25;;;;;;;13.40;8.10;;;13.00;95.90;;;;;;5073235;28;20444;-71
2023/06/02 03:35:10;;;;;;;16.73;8.30;;;12.90;96.10;;;;;;5076479;28;20433;-72
2023/06/02 03:37:57;;;;;;;8.77;7.27;;;12.80;97.10;;;;;;5074266;28;20450;-71
2023/06/02 03:40:43;;;;;;;34.43;9.10;;;12.70;98.90;;;;;;5063910;28;20424;-72
2023/06/02 03:43:28;;;;;;;8.97;7.30;;;12.70;99.90;;;;;;5068898;28;20445;-71
2023/06/02 03:46:14;;;;;;;8.43;7.53;;;12.60;99.90;;;;;;5077876;28;20551;-71
2023/06/02 03:49:00;;;;;;;8.83;7.50;;;12.60;99.90;;;;;;5076674;28;20460;-71
2023/06/02 03:51:46;;;;;;;10.63;7.07;;;12.90;99.90;;;;;;5065085;28;20604;-72
2023/06/02 03:54:33;;;;;;;8.30;7.20;;;13.00;99.90;;;;;;5078038;28;20552;-71
2023/06/02 03:57:19;;;;;;;11.00;7.83;;;13.00;99.90;;;;;;5078846;28;20508;-71
2023/06/02 04:00:10;;;;;;;9.73;7.30;;;13.30;99.90;;;;;;5064717;28;21525;-71
2023/06/02 04:02:57;;;;;;;14.30;8.13;;;13.30;99.60;;;;;;5077133;28;20446;-71
2023/06/02 04:05:42;;;;;;;13.47;8.70;;;13.40;99.30;;;;;;5074363;28;21029;-71
2023/06/02 04:08:27;;;;;;;10.40;7.33;;;13.40;98.70;;;;;;5078071;28;20466;-71
2023/06/02 04:11:15;;;;;;;9.00;7.73;;;13.50;98.40;;;;;;5071723;28;20952;-71
2023/06/02 04:14:00;;;;;;;9.43;7.80;;;13.60;98.10;;;;;;5076342;28;20420;-71
2023/06/02 04:16:46;;;;;;;8.60;7.03;;;13.70;97.80;;;;;;5071961;28;20417;-71
2023/06/02 04:19:31;;;;;;;11.53;7.10;;;13.80;97.60;;;;;;5068772;28;20535;-71
2023/06/02 04:22:17;;;;;;;9.33;7.33;;;13.80;97.10;;;;;;5067878;28;20419;-71
2023/06/02 04:25:02;;;;;;;8.13;6.73;;;13.90;96.90;;;;;;5069575;28;20436;-71
2023/06/02 04:27:49;;;;;;;12.23;7.27;;;14.00;96.40;;;;;;5065489;28;20482;-71
2023/06/02 04:30:36;;;;;;;13.60;7.03;;;14.10;95.80;;;;;;5068207;28;20481;-71
2023/06/02 04:33:22;;;;;;;11.70;7.97;;;14.10;95.40;;;;;;5069548;28;20515;-71
2023/06/02 04:36:10;;;;;;;11.90;7.87;;;14.20;94.90;;;;;;5066335;28;20465;-71
2023/06/02 04:38:55;;;;;;;9.63;6.33;;;14.30;94.50;;;;;;5069308;28;20498;-70
2023/06/02 04:41:41;;;;;;;12.70;7.77;;;14.30;94.80;;;;;;5066377;28;20448;-70
2023/06/02 04:44:27;;;;;;;9.37;7.57;;;14.20;94.30;;;;;;5065113;28;20447;-71
2023/06/02 04:47:13;;;;;;;8.87;7.30;;;14.20;94.60;;;;;;5072459;28;20441;-71
2023/06/02 04:49:59;;;;;;;11.90;7.53;;;14.30;94.20;;;;;;5062252;28;20434;-71
2023/06/02 04:52:44;;;;;;;9.97;7.13;;;14.40;94.00;;;;;;5068128;28;20911;-71
2023/06/02 04:55:30;;;;;;;13.67;8.27;;;14.40;94.00;;;;;;5069482;28;20554;-71
2023/06/02 04:58:16;;;;;;;10.07;7.97;;;14.50;94.10;;;;;;5066302;28;20490;-70
2023/06/02 05:01:03;;;;;;;9.70;7.47;;;14.50;93.30;;;;;;5062141;28;20423;-71
2023/06/02 05:03:48;;;;;;;11.77;8.37;;;14.50;93.40;;;;;;5064989;28;20469;-70
2023/06/02 05:06:33;;;;;;;9.00;6.80;;;14.60;93.20;;;;;;5063651;28;20511;-70
2023/06/02 05:09:19;;;;;;;9.27;6.83;;;14.60;92.60;;;;;;5060500;28;20451;-71
2023/06/02 05:12:06;;;;;;;9.30;6.80;;;14.60;93.20;;;;;;5066937;28;20461;-71
2023/06/02 05:14:51;;;;;;;10.13;7.10;;;14.60;92.90;;;;;;5067866;28;20549;-71
2023/06/02 05:17:38;;;;;;;10.60;7.70;;;14.70;92.40;;;;;;5068740;28;21145;-71
2023/06/02 05:20:23;;;;;;;10.40;8.00;;;14.80;92.30;;;;;;5062980;28;20512;-71
2023/06/02 05:23:08;;;;;;;13.30;7.73;;;14.80;92.10;;;;;;5065850;28;20553;-72
2023/06/02 05:25:54;;;;;;;9.50;6.77;;;14.90;92.00;;;;;;5063451;28;20456;-70
2023/06/02 05:28:40;;;;;;;14.53;7.70;;;14.90;91.50;;;;;;5068170;23;20452;-85
2023/06/02 05:31:25;;;;;;;13.33;7.20;;;14.90;91.20;;;;;;5021202;28;20442;-85
2023/06/02 05:34:12;;;;;;;10.80;6.87;;;15.00;90.30;;;;;;5024395;28;20449;-86
2023/06/02 05:36:58;;;;;;;12.03;6.90;;;15.00;88.90;;;;;;5024047;28;20461;-86
2023/06/02 05:39:43;;;;;;;9.43;7.10;;;15.10;87.70;;;;;;5018838;28;22024;-86
2023/06/02 05:42:28;;;;;;;7.43;6.57;;;15.10;86.70;;;;;;5023686;28;20466;-86
2023/06/02 05:45:14;;;;;;;12.20;7.90;;;15.10;86.60;;;;;;5022411;28;20419;-86
2023/06/02 05:48:00;;;;;;;12.90;8.00;;;15.20;84.80;;;;;;5023155;28;21038;-84
2023/06/02 05:50:47;;;;;;;9.90;7.23;;;15.20;84.80;;;;;;5020725;28;20927;-85
2023/06/02 05:53:32;;;;;;;12.10;7.17;;;15.30;83.50;;;;;;5022893;28;20521;-86
2023/06/02 05:56:18;;;;;;;11.37;8.17;;;15.20;82.40;;;;;;5023854;28;20419;-84
2023/06/02 05:59:05;;;;;;;12.07;8.03;;;15.20;82.00;;;;;;5021629;28;20446;-83
2023/06/02 06:01:50;;;;;;;15.37;8.20;;;15.30;80.80;;;;;;5028231;28;20463;-85
2023/06/02 06:04:35;;;;;;;21.57;8.33;;;15.30;81.90;;;;;;5027072;28;20577;-85
2023/06/02 06:07:22;;;;;;;11.23;6.70;;;15.30;80.40;;;;;;5025473;28;20441;-85
2023/06/02 06:10:09;;;;;;;15.87;8.33;;;15.30;80.10;;;;;;5025086;28;20518;-86
2023/06/02 06:12:54;;;;;;;11.93;7.00;;;15.30;80.10;;;;;;5027695;28;20451;-86
2023/06/02 06:15:40;;;;;;;9.43;7.90;;;15.30;80.10;;;;;;5022692;28;20421;-85
2023/06/02 06:18:26;;;;;;;16.23;7.53;;;15.40;79.60;;;;;;5028424;28;20828;-85
2023/06/02 06:21:11;;;;;;;17.00;8.40;;;15.40;78.40;;;;;;5038718;28;20415;-83
2023/06/02 06:23:58;;;;;;;17.70;8.80;;;15.50;78.20;;;;;;5027811;28;20910;-85
2023/06/02 06:26:44;;;;;;;11.87;6.90;;;15.60;77.10;;;;;;5033580;28;20581;-85
2023/06/02 06:29:29;;;;;;;17.93;7.70;;;15.60;76.30;;;;;;5022099;28;20456;-84
2023/06/02 06:32:15;;;;;;;13.53;8.27;;;15.50;77.00;;;;;;5020571;28;20445;-86
2023/06/02 06:35:01;;;;;;;13.53;8.10;;;15.60;76.40;;;;;;5024894;28;20975;-85
2023/06/02 06:37:46;;;;;;;13.30;7.87;;;15.70;74.60;;;;;;5026191;28;20526;-86
2023/06/02 06:40:33;;;;;;;13.53;8.33;;;15.80;75.30;;;;;;5021978;28;20478;-84
2023/06/02 06:43:19;;;;;;;10.27;7.53;;;15.80;74.80;;;;;;5028889;28;20471;-85
2023/06/02 06:46:05;;;;;;;13.10;8.40;;;15.90;73.30;;;;;;5028115;28;20560;-86
2023/06/02 06:48:51;;;;;;;12.67;7.20;;;15.90;74.20;;;;;;5024425;28;20976;-86
2023/06/02 06:51:37;;;;;;;11.87;7.33;;;16.00;73.10;;;;;;5024541;28;20446;-86
2023/06/02 06:54:22;;;;;;;16.70;7.63;;;16.10;73.30;;;;;;5028180;28;20422;-86
2023/06/02 06:57:11;;;;;;;11.20;7.47;;;16.30;71.30;;;;;;5028763;28;21036;-86
2023/06/02 06:59:56;;;;;;;11.60;7.00;;;16.30;70.00;;;;;;5021066;28;20549;-86
2023/06/02 07:02:43;;;;;;;10.00;7.33;;;16.30;70.20;;;;;;5025483;28;20863;-86
2023/06/02 07:05:29;;;;;;;14.90;7.32;;;16.30;71.50;;;;;;5027525;28;20587;-85
2023/06/02 07:08:14;;;;;;;12.37;7.57;;;16.40;69.70;;;;;;5021278;28;20216;-86
2023/06/02 07:11:00;;;;;;;8.00;6.63;;;16.40;67.90;;;;;;5025943;28;20453;-87
2023/06/02 07:13:46;;;;;;;13.93;6.87;;;16.50;67.40;;;;;;5027310;28;20465;-84
2023/06/02 07:16:32;;;;;;;10.77;7.17;;;16.60;67.40;;;;;;5028322;28;20515;-86
2023/06/02 07:19:17;;;;;;;13.73;6.90;;;16.70;66.60;;;;;;5019898;28;20520;-86
2023/06/02 07:22:03;;;;;;;12.90;7.33;;;16.60;67.00;;;;;;5027315;28;20545;-86
2023/06/02 07:24:48;;;;;;;8.43;6.43;;;16.70;64.40;;;;;;5025665;28;20426;-84
2023/06/02 07:27:34;;;;;;;9.67;7.67;;;16.80;65.10;;;;;;5027647;28;21002;-86
2023/06/02 07:30:22;;;;;;;9.73;6.63;;;16.90;65.50;;;;;;5035117;28;20589;-86
2023/06/02 07:33:07;;;;;;;12.13;7.47;;;17.10;65.90;;;;;;5027759;28;20468;-84
2023/06/02 07:35:52;;;;;;;15.80;7.90;;;17.10;61.90;;;;;;5033670;28;20432;-84
2023/06/02 07:38:38;;;;;;;15.90;7.20;;;17.10;61.90;;;;;;5034278;28;21257;-85
2023/06/02 07:41:25;;;;;;;11.70;7.80;;;17.20;62.70;;;;;;5025316;28;20453;-86
2023/06/02 07:44:10;;;;;;;12.07;7.90;;;17.20;59.70;;;;;;5030052;28;20427;-86
2023/06/02 07:46:57;;;;;;;13.67;7.80;;;17.20;58.90;;;;;;5028997;28;20438;-86
2023/06/02 07:49:43;;;;;;;12.33;7.43;;;17.20;60.70;;;;;;5026671;28;20437;-85
2023/06/02 07:52:29;;;;;;;10.90;7.37;;;17.30;59.90;;;;;;5020944;28;20533;-85
2023/06/02 07:55:14;;;;;;;10.00;6.87;;;17.30;60.60;;;;;;5030719;28;20411;-84
2023/06/02 07:58:00;;;;;;;11.60;7.93;;;17.30;60.30;;;;;;5023230;28;20411;-86
2023/06/02 08:00:46;;;;;;;10.77;6.80;;;17.40;58.80;;;;;;5029736;28;20433;-85
2023/06/02 08:03:33;;;;;;;11.73;7.43;;;17.40;57.30;;;;;;5026240;28;20525;-84
2023/06/02 08:06:18;;;;;;;11.10;7.73;;;17.40;56.80;;;;;;5028179;28;21085;-85
2023/06/02 08:09:06;;;;;;;11.27;7.27;;;17.40;57.10;;;;;;5023773;28;20527;-86
2023/06/02 08:11:52;;;;;;;14.63;7.50;;;17.50;55.40;;;;;;5031703;28;20461;-86
2023/06/02 08:14:37;;;;;;;13.30;7.47;;;17.50;57.20;;;;;;5032017;28;22352;-84
2023/06/02 08:17:29;;;;;;;8.67;6.77;;;17.40;54.10;;;;;;5024443;28;20526;-84
2023/06/02 08:20:16;;;;;;;10.20;7.10;;;17.50;57.20;;;;;;5032774;28;20460;-85
2023/06/02 08:23:01;;;;;;;17.93;7.70;;;17.50;57.30;;;;;;5031300;28;20471;-87
2023/06/02 08:25:47;;;;;;;13.07;6.83;;;17.60;55.30;;;;;;5032860;28;20425;-85
2023/06/02 08:28:34;;;;;;;14.53;7.13;;;17.70;56.50;;;;;;5033799;28;20423;-86
2023/06/02 08:31:20;;;;;;;16.67;7.50;;;17.90;56.70;;;;;;5038524;28;20504;-86
2023/06/02 08:34:08;;;;;;;9.70;6.80;;;17.90;54.70;;;;;;5032101;28;21092;-85
2023/06/02 08:36:56;;;;;;;9.50;7.00;;;18.00;52.00;;;;;;5032811;28;20525;-85
2023/06/02 08:39:41;;;;;;;14.17;7.70;;;18.00;53.40;;;;;;5030139;28;20475;-85
2023/06/02 08:42:27;;;;;;;15.77;6.70;;;18.10;52.90;;;;;;5028687;28;20460;-84
2023/06/02 08:45:13;;;;;;;13.83;7.50;;;18.20;51.40;;;;;;5027629;28;20445;-85
2023/06/02 08:47:59;;;;;;;21.03;6.93;;;18.20;50.80;;;;;;5027791;28;20440;-85
2023/06/02 08:50:47;;;;;;;12.23;7.40;;;18.20;53.30;;;;;;5031538;28;20419;-85
2023/06/02 08:53:35;;;;;;;9.30;6.80;;;18.40;51.60;;;;;;5030942;28;20473;-85
2023/06/02 08:56:21;;;;;;;13.23;7.63;;;18.40;51.00;;;;;;5035713;28;20444;-85
2023/06/02 08:59:06;;;;;;;18.30;7.23;;;18.50;49.00;;;;;;5033663;28;20466;-85
2023/06/02 09:01:53;;;;;;;8.13;6.27;;;18.50;49.60;;;;;;5028044;28;20512;-86
2023/06/02 09:04:46;;;;;;;11.40;6.90;;;18.60;48.40;;;;;;5030769;28;20404;-88
2023/06/02 09:07:32;;;;;;;11.10;7.00;;;18.60;49.60;;;;;;5029141;28;20437;-88
2023/06/02 09:10:41;;;;;;;10.90;7.13;;;18.60;51.80;;;;;;5041750;28;21033;-87
2023/06/02 09:13:30;;;;;;;11.20;6.67;;;18.70;49.10;;;;;;5035475;28;20472;-84
2023/06/02 09:16:16;;;;;;;12.20;7.40;;;18.80;46.70;;;;;;5031005;28;20786;-84
2023/06/02 09:19:01;;;;;;;12.87;6.80;;;18.80;47.50;;;;;;5028753;28;20845;-83
2023/06/02 09:21:47;;;;;;;13.97;6.40;;;18.90;46.20;;;;;;5030029;28;20472;-85
2023/06/02 09:24:33;;;;;;;14.50;7.03;;;18.90;45.30;;;;;;5032395;28;20834;-84
2023/06/02 09:27:20;;;;;;;12.53;7.27;;;19.00;44.70;;;;;;5032096;28;20443;-85
2023/06/02 09:30:07;;;;;;;11.47;6.80;;;19.00;45.60;;;;;;5029438;28;20456;-85
2023/06/02 09:32:54;;;;;;;13.57;6.97;;;19.10;45.40;;;;;;5028517;28;20443;-83
2023/06/02 09:35:41;;;;;;;9.63;6.17;;;19.20;42.30;;;;;;5038636;28;20427;-86
2023/06/02 09:38:26;;;;;;;15.70;6.70;;;19.20;42.80;;;;;;5026032;28;20450;-86
2023/06/02 09:41:16;;;;;;;13.87;6.93;;;19.30;41.40;;;;;;5026022;28;20422;-86
2023/06/02 09:44:11;;;;;;;10.10;6.00;;;19.30;43.30;;;;;;5038821;28;20430;-86
2023/06/02 09:46:56;;;;;;;8.73;6.30;;;19.50;42.10;;;;;;5025942;28;20507;-86
2023/06/02 09:49:42;;;;;;;11.77;6.97;;;19.50;41.60;;;;;;5012487;28;20536;-86
2023/06/02 09:52:27;;;;;;;10.70;6.93;;;19.60;40.80;;;;;;5028580;28;20438;-85
2023/06/02 09:55:13;;;;;;;9.93;6.97;;;19.60;38.00;;;;;;5020995;28;21092;-85
2023/06/02 09:58:00;;;;;;;10.57;7.20;;;19.60;36.80;;;;;;5020643;28;20665;-86
2023/06/02 10:00:47;;;;;;;10.77;6.07;;;19.60;40.70;;;;;;5021353;28;20554;-85
2023/06/02 10:03:32;;;;;;;14.77;6.90;;;19.60;39.10;;;;;;5022866;28;20533;-86
2023/06/02 10:06:26;;;;;;;10.13;6.80;;;19.60;39.10;;;;;;5022668;28;20974;-86
2023/06/02 10:09:27;;;;;;;12.50;5.83;;;19.70;39.20;;;;;;5027473;28;20423;-86
2023/06/02 10:12:31;;;;;;;11.43;6.30;;;19.80;36.30;;;;;;5027382;28;20473;-86
2023/06/02 10:15:32;;;;;;;9.93;6.00;;;19.80;35.50;;;;;;5031959;28;20446;-86
2023/06/02 10:18:54;;;;;;;15.97;5.93;;;20.00;35.40;;;;;;5021140;28;20478;-86
2023/06/02 10:21:54;;;;;;;7.47;5.93;;;20.10;35.60;;;;;;5025036;28;20449;-85
2023/06/02 10:24:49;;;;;;;13.50;7.07;;;20.10;36.70;;;;;;5025097;28;21004;-86
2023/06/02 10:27:37;;;;;;;9.77;6.40;;;20.20;34.60;;;;;;5022750;28;20449;-86
2023/06/02 10:30:24;;;;;;;10.30;5.60;;;20.30;32.10;;;;;;5025582;28;20444;-86
2023/06/02 10:33:10;;;;;;;9.47;5.57;;;20.40;34.90;;;;;;5026079;28;20470;-86
2023/06/02 10:36:01;;;;;;;9.43;5.23;;;20.40;33.20;;;;;;5019062;28;20449;-86
2023/06/02 10:38:47;;;;;;;10.53;5.70;;;20.60;31.50;;;;;;5023357;28;20472;-85
2023/06/02 10:42:06;;;;;;;7.00;5.13;;;20.50;31.60;;;;;;5020104;28;20453;-86
2023/06/02 10:44:53;;;;;;;17.27;6.80;;;20.50;32.10;;;;;;5018325;28;20408;-86
2023/06/02 10:47:39;;;;;;;7.90;5.90;;;20.60;30.60;;;;;;5027774;28;20443;-86
2023/06/02 10:50:24;;;;;;;8.43;5.83;;;20.50;30.60;;;;;;5029134;28;20491;-86
2023/06/02 10:53:12;;;;;;;7.97;5.73;;;20.50;30.80;;;;;;5031361;28;20547;-86
2023/06/02 10:55:57;;;;;;;22.73;11.80;;;20.60;29.70;;;;;;5024917;28;20437;-88
2023/06/02 10:58:52;;;;;;;437.67;242.97;;;20.70;31.60;;;;;;5032186;28;20444;-86
2023/06/02 11:01:46;;;;;;;21.10;11.00;;;20.80;30.00;;;;;;5035030;28;20567;-86
2023/06/02 11:04:33;;;;;;;11.43;8.63;;;20.90;27.60;;;;;;5028227;28;20984;-86
2023/06/02 11:07:21;;;;;;;18.40;10.07;;;20.90;27.20;;;;;;5035305;28;20523;-86
2023/06/02 11:10:40;;;;;;;6.80;5.10;;;21.00;28.30;;;;;;5035879;28;20537;-84
2023/06/02 11:13:26;;;;;;;9.63;5.43;;;21.00;28.10;;;;;;5042249;28;20563;-85
2023/06/02 11:16:15;;;;;;;6.83;4.83;;;21.20;26.30;;;;;;5028251;28;20422;-86
2023/06/02 11:19:01;;;;;;;8.47;5.20;;;21.20;24.50;;;;;;5030585;28;20411;-84
2023/06/02 11:21:46;;;;;;;9.20;5.97;;;21.20;25.40;;;;;;5030825;28;20574;-86
2023/06/02 11:24:32;;;;;;;9.07;5.80;;;21.30;25.70;;;;;;5026876;28;20522;-87
2023/06/02 11:27:19;;;;;;;14.80;5.50;;;21.30;27.50;;;;;;5026598;28;20446;-86
2023/06/02 11:30:11;;;;;;;11.70;6.00;;;21.30;29.30;;;;;;5027167;28;20452;-86
2023/06/02 11:32:56;;;;;;;16.80;5.70;;;21.40;27.50;;;;;;5026466;28;20477;-86
2023/06/02 11:35:46;;;;;;;7.43;5.70;;;21.40;27.60;;;;;;5025429;28;20503;-86
2023/06/02 11:38:32;;;;;;;9.70;5.60;;;21.50;25.70;;;;;;5030364;28;20504;-86
2023/06/02 11:41:18;;;;;;;11.87;5.33;;;21.50;25.40;;;;;;5026564;28;20473;-86
2023/06/02 11:44:06;;;;;;;6.60;4.70;;;21.60;27.20;;;;;;5025673;28;20440;-86
2023/06/02 11:46:52;;;;;;;7.27;4.40;;;21.60;24.50;;;;;;5027661;28;20982;-85
2023/06/02 11:49:38;;;;;;;11.47;5.10;;;21.80;23.10;;;;;;5025719;28;20453;-86
2023/06/02 11:52:23;;;;;;;11.07;4.70;;;21.80;24.40;;;;;;5025296;28;20481;-86
2023/06/02 11:55:10;;;;;;;10.50;4.90;;;21.90;24.30;;;;;;5025719;28;20927;-86
2023/06/02 11:58:18;;;;;;;6.83;4.20;;;22.00;22.10;;;;;;5029037;28;21395;-86
2023/06/02 12:01:09;;;;;;;6.43;4.87;;;22.10;25.10;;;;;;5023434;28;20484;-85
2023/06/02 12:04:04;;;;;;;9.87;4.60;;;22.20;24.00;;;;;;5024791;28;20449;-87
2023/06/02 12:06:50;;;;;;;7.70;4.20;;;22.40;22.90;;;;;;5030715;28;20449;-86
2023/06/02 12:09:37;;;;;;;7.40;4.37;;;22.40;22.10;;;;;;5037973;28;20426;-86
2023/06/02 12:12:23;;;;;;;12.90;4.93;;;22.30;22.10;;;;;;5041802;28;20494;-86
2023/06/02 12:15:14;;;;;;;8.73;4.57;;;22.40;22.50;;;;;;5030054;28;20502;-86
2023/06/02 12:18:03;;;;;;;5.50;4.20;;;22.50;21.00;;;;;;5029132;28;20465;-86
2023/06/02 12:20:49;;;;;;;7.10;4.07;;;22.50;22.80;;;;;;5036002;28;20460;-85
2023/06/02 12:23:45;;;;;;;6.87;4.07;;;22.70;21.80;;;;;;5030988;28;20469;-84
2023/06/02 12:26:40;;;;;;;11.93;4.67;;;22.70;20.50;;;;;;5030237;28;20424;-86
2023/06/02 12:29:25;;;;;;;7.80;4.50;;;22.80;21.30;;;;;;5029300;28;20948;-87
2023/06/02 12:32:11;;;;;;;8.90;4.53;;;22.90;19.60;;;;;;5028345;28;20564;-86
2023/06/02 12:34:58;;;;;;;10.00;4.20;;;22.90;19.60;;;;;;5032306;28;20420;-86
2023/06/02 12:37:44;;;;;;;5.80;4.20;;;22.90;20.40;;;;;;5023542;28;20449;-87
2023/06/02 12:40:29;;;;;;;7.60;4.20;;;22.80;21.40;;;;;;5033806;28;20472;-86
2023/06/02 12:43:16;;;;;;;8.40;4.53;;;22.90;20.90;;;;;;5023144;28;20484;-86
2023/06/02 12:46:03;;;;;;;9.07;4.70;;;23.10;21.30;;;;;;5026690;28;20427;-87
2023/06/02 12:48:48;;;;;;;8.70;5.43;;;23.30;22.40;;;;;;5025905;28;20803;-86
2023/06/02 12:51:35;;;;;;;14.33;4.97;;;23.40;20.00;;;;;;5022129;28;20806;-86
2023/06/02 12:54:20;;;;;;;8.40;4.00;;;23.50;20.10;;;;;;5024457;28;20833;-88
2023/06/02 12:57:07;;;;;;;14.33;4.00;;;23.60;21.00;;;;;;5028259;28;20531;-88
2023/06/02 12:59:52;;;;;;;6.83;4.47;;;23.70;20.90;;;;;;5023553;28;20453;-88
2023/06/02 13:02:40;;;;;;;6.13;4.07;;;23.80;19.90;;;;;;5021958;28;20528;-86
2023/06/02 13:05:27;;;;;;;9.10;5.10;;;23.90;18.80;;;;;;5025134;28;20461;-87
2023/06/02 13:08:14;;;;;;;6.37;4.23;;;23.90;19.40;;;;;;5024421;28;20453;-87
2023/06/02 13:10:59;;;;;;;9.93;3.70;;;23.90;18.60;;;;;;5024984;28;20948;-87
2023/06/02 13:13:45;;;;;;;6.47;4.13;;;24.10;18.30;;;;;;5019495;28;21298;-87
2023/06/02 13:16:31;;;;;;;12.00;3.67;;;24.10;18.30;;;;;;5023706;28;20436;-87
2023/06/02 13:19:17;;;;;;;9.57;4.47;;;24.20;18.40;;;;;;5019260;28;20457;-87
2023/06/02 13:22:03;;;;;;;11.07;4.20;;;24.30;18.50;;;;;;5024490;28;20508;-86
2023/06/02 13:24:49;;;;;;;12.50;4.10;;;24.40;18.30;;;;;;5026228;28;20435;-86
2023/06/02 13:27:34;;;;;;;5.37;3.70;;;24.40;18.60;;;;;;5020589;28;20973;-87
2023/06/02 13:30:21;;;;;;;9.23;3.67;;;24.30;18.10;;;;;;5028880;28;20444;-86
2023/06/02 13:33:06;;;;;;;5.70;3.70;;;24.40;20.20;;;;;;5023401;28;20559;-87
2023/06/02 13:35:52;;;;;;;7.90;3.50;;;24.50;18.60;;;;;;5027536;28;20492;-87
2023/06/02 13:38:39;;;;;;;9.10;4.60;;;24.60;18.70;;;;;;5027586;28;20440;-87
2023/06/02 13:41:27;;;;;;;7.00;4.27;;;24.70;18.80;;;;;;5017000;28;20472;-85
2023/06/02 13:44:17;;;;;;;16.33;3.90;;;24.80;18.90;;;;;;5022122;28;20443;-87
2023/06/02 13:47:04;;;;;;;6.53;4.00;;;25.00;17.20;;;;;;5023195;28;20472;-87
2023/06/02 13:49:49;;;;;;;106.07;12.20;;;25.00;16.40;;;;;;5024331;28;20449;-87
2023/06/02 13:52:34;;;;;;;8.27;4.30;;;25.00;16.30;;;;;;5019588;28;20461;-87
2023/06/02 13:55:20;;;;;;;10.13;3.70;;;24.90;16.20;;;;;;5024196;28;20445;-87
2023/06/02 13:58:07;;;;;;;4.60;3.17;;;24.80;15.60;;;;;;5026668;28;20453;-86
2023/06/02 14:00:53;;;;;;;7.10;3.33;;;24.80;16.30;;;;;;5023175;28;20468;-87
2023/06/02 14:03:38;;;;;;;4.97;3.17;;;25.00;17.80;;;;;;5020362;28;20552;-85
2023/06/02 14:06:23;;;;;;;5.57;3.43;;;25.00;15.20;;;;;;5026090;28;20445;-87
2023/06/02 14:09:09;;;;;;;6.80;3.17;;;24.90;14.70;;;;;;5024163;28;20441;-86
2023/06/02 14:11:54;;;;;;;6.67;3.83;;;24.70;14.80;;;;;;5025053;28;20476;-86
2023/06/02 14:14:41;;;;;;;6.30;3.57;;;24.60;15.90;;;;;;5028907;28;21029;-86
2023/06/02 14:17:27;;;;;;;6.20;3.57;;;24.60;15.70;;;;;;5024900;28;20469;-87
2023/06/02 14:20:13;;;;;;;7.30;3.23;;;24.70;16.30;;;;;;5023781;28;20541;-87
2023/06/02 14:22:58;;;;;;;7.03;3.57;;;24.80;16.50;;;;;;5018127;28;20474;-87